createdAt,value
2023-12-24T00:02:23.779Z,100.00
2023-12-24T00:05:26.036Z,100.00
2023-12-24T00:08:30.245Z,100.00
2023-12-24T00:11:32.843Z,100.00
2023-12-24T00:14:35.081Z,100.00
2023-12-24T00:17:37.321Z,100.00
2023-12-24T00:20:39.541Z,100.00
2023-12-24T00:23:43.741Z,100.00
2023-12-24T00:26:45.748Z,100.00
2023-12-24T00:29:47.727Z,100.00
2023-12-24T00:32:49.978Z,100.00
2023-12-24T00:35:52.104Z,100.00
2023-12-24T00:38:54.047Z,100.00
2023-12-24T00:41:56.034Z,100.00
2023-12-24T00:44:58.153Z,100.00
2023-12-24T00:48:01.904Z,100.00
2023-12-24T00:51:05.328Z,100.00
2023-12-24T00:54:09.540Z,100.00
2023-12-24T00:57:11.504Z,100.00
2023-12-24T01:00:15.026Z,100.00
2023-12-24T01:03:17.075Z,100.00
2023-12-24T01:06:19.661Z,100.00
2023-12-24T01:09:22.075Z,100.00
2023-12-24T01:12:24.013Z,100.00
2023-12-24T01:15:26.007Z,100.00
2023-12-24T01:18:28.559Z,100.00
2023-12-24T01:21:30.875Z,100.00
2023-12-24T01:24:32.931Z,100.00
2023-12-24T01:27:34.885Z,100.00
2023-12-24T01:30:37.307Z,100.00
2023-12-24T01:33:40.208Z,100.00
2023-12-24T01:36:42.284Z,100.00
2023-12-24T01:39:44.222Z,100.00
2023-12-24T01:42:47.233Z,100.00
2023-12-24T01:45:49.853Z,100.00
2023-12-24T01:48:52.080Z,100.00
2023-12-24T01:51:55.618Z,100.00
2023-12-24T01:54:58.362Z,100.00
2023-12-24T01:58:00.453Z,100.00
2023-12-24T02:01:02.903Z,100.00
2023-12-24T02:04:05.447Z,100.00
2023-12-24T02:07:08.817Z,100.00
2023-12-24T02:10:11.192Z,100.00
2023-12-24T02:13:14.051Z,100.00
2023-12-24T02:16:22.596Z,100.00
2023-12-24T02:19:27.906Z,100.00
2023-12-24T02:22:30.038Z,100.00
2023-12-24T02:25:33.114Z,100.00
2023-12-24T02:28:43.434Z,100.00
2023-12-24T02:31:50.496Z,100.00
2023-12-24T02:34:54.614Z,100.00
2023-12-24T02:37:56.928Z,100.00
2023-12-24T02:40:59.145Z,100.00
2023-12-24T02:44:01.624Z,100.00
2023-12-24T02:47:04.403Z,100.00
2023-12-24T02:50:07.411Z,100.00
2023-12-24T02:53:09.600Z,100.00
2023-12-24T02:56:11.772Z,100.00
2023-12-24T02:59:13.805Z,100.00
2023-12-24T03:02:15.947Z,100.00
2023-12-24T03:05:18.333Z,100.00
2023-12-24T03:08:20.832Z,100.00
2023-12-24T03:11:22.844Z,100.00
2023-12-24T03:14:25.104Z,100.00
2023-12-24T03:17:27.414Z,100.00
2023-12-24T03:20:29.550Z,100.00
2023-12-24T03:23:32.724Z,100.00
2023-12-24T03:26:35.274Z,100.00
2023-12-24T03:29:37.688Z,100.00
2023-12-24T03:32:40.049Z,100.00
2023-12-24T03:35:44.533Z,100.00
2023-12-24T03:38:46.964Z,100.00
2023-12-24T03:41:49.511Z,100.00
2023-12-24T03:44:52.213Z,100.00
2023-12-24T03:47:54.724Z,100.00
2023-12-24T03:50:56.752Z,100.00
2023-12-24T03:53:59.352Z,100.00
2023-12-24T03:57:01.656Z,100.00
2023-12-24T04:00:03.879Z,100.00
2023-12-24T04:03:06.844Z,100.00
2023-12-24T04:06:33.028Z,100.00
2023-12-24T04:09:36.438Z,100.00
2023-12-24T04:12:43.875Z,100.00
2023-12-24T04:15:46.386Z,100.00
2023-12-24T04:18:48.593Z,100.00
2023-12-24T04:21:50.998Z,100.00
2023-12-24T04:24:53.485Z,100.00
2023-12-24T04:27:55.631Z,100.00
2023-12-24T04:30:57.735Z,100.00
2023-12-24T04:34:00.085Z,100.00
2023-12-24T04:37:02.221Z,100.00
2023-12-24T04:40:06.075Z,100.00
2023-12-24T04:43:08.454Z,100.00
2023-12-24T04:46:10.482Z,100.00
2023-12-24T04:49:12.770Z,100.00
2023-12-24T04:52:15.191Z,100.00
2023-12-24T04:55:17.657Z,100.00
2023-12-24T04:58:22.052Z,100.00
2023-12-24T05:01:24.517Z,100.00
2023-12-24T05:04:28.406Z,100.00
2023-12-24T05:07:31.310Z,100.00
2023-12-24T05:10:34.887Z,100.00
2023-12-24T05:13:37.786Z,100.00
2023-12-24T05:16:39.941Z,100.00
2023-12-24T05:19:44.704Z,100.00
2023-12-24T05:22:47.150Z,100.00
2023-12-24T05:25:49.517Z,100.00
2023-12-24T05:28:54.742Z,100.00
2023-12-24T05:31:59.372Z,100.00
2023-12-24T05:35:02.017Z,100.00
2023-12-24T05:38:04.556Z,100.00
2023-12-24T05:41:10.155Z,100.00
2023-12-24T05:44:12.505Z,100.00
2023-12-24T05:47:14.737Z,100.00
2023-12-24T05:50:19.491Z,100.00
2023-12-24T05:53:24.777Z,100.00
2023-12-24T05:56:29.556Z,100.00
2023-12-24T05:59:32.728Z,100.00
2023-12-24T06:02:37.258Z,100.00
2023-12-24T06:05:46.542Z,100.00
2023-12-24T06:08:49.220Z,100.00
2023-12-24T06:11:51.985Z,100.00
2023-12-24T06:14:54.953Z,100.00
2023-12-24T06:17:57.740Z,100.00
2023-12-24T06:21:06.475Z,100.00
2023-12-24T06:24:09.016Z,100.00
2023-12-24T06:27:14.447Z,100.00
2023-12-24T06:30:21.391Z,100.00
2023-12-24T06:33:24.024Z,100.00
2023-12-24T06:36:32.474Z,100.00
2023-12-24T06:39:41.331Z,100.00
2023-12-24T06:42:44.567Z,100.00
2023-12-24T06:45:47.292Z,100.00
2023-12-24T06:48:50.483Z,100.00
2023-12-24T06:51:54.904Z,100.00
2023-12-24T06:54:57.869Z,100.00
2023-12-24T06:58:04.328Z,100.00
2023-12-24T07:01:14.833Z,100.00
2023-12-24T07:04:24.027Z,100.00
2023-12-24T07:07:27.874Z,100.00
2023-12-24T07:10:30.197Z,100.00
2023-12-24T07:13:32.386Z,100.00
2023-12-24T07:16:36.768Z,100.00
2023-12-24T07:19:40.548Z,100.00
2023-12-24T07:22:42.638Z,100.00
2023-12-24T07:25:44.891Z,100.00
2023-12-24T07:28:48.907Z,100.00
2023-12-24T07:31:51.241Z,100.00
2023-12-24T07:34:55.419Z,100.00
2023-12-24T07:37:57.929Z,100.00
2023-12-24T07:41:00.364Z,100.00
2023-12-24T07:44:02.822Z,100.00
2023-12-24T07:47:05.087Z,100.00
2023-12-24T07:50:08.775Z,100.00
2023-12-24T07:53:11.047Z,100.00
2023-12-24T07:56:14.931Z,100.00
2023-12-24T07:59:17.193Z,100.00
2023-12-24T08:02:19.673Z,100.00
2023-12-24T08:05:21.691Z,100.00
2023-12-24T08:08:23.813Z,100.00
2023-12-24T08:11:26.945Z,100.00
2023-12-24T08:14:30.617Z,100.00
2023-12-24T08:17:33.069Z,100.00
2023-12-24T08:20:38.089Z,100.00
2023-12-24T08:23:40.958Z,100.00
2023-12-24T08:26:43.460Z,100.00
2023-12-24T08:29:45.601Z,100.00
2023-12-24T08:32:47.594Z,100.00
2023-12-24T08:35:49.566Z,100.00
2023-12-24T08:38:51.640Z,100.00
2023-12-24T08:41:53.667Z,100.00
2023-12-24T08:44:55.841Z,100.00
2023-12-24T08:47:58.845Z,100.00
2023-12-24T08:51:05.885Z,100.00
2023-12-24T08:54:08.233Z,100.00
2023-12-24T08:57:10.883Z,100.00
2023-12-24T09:00:14.134Z,100.00
2023-12-24T09:03:18.498Z,100.00
2023-12-24T09:06:23.677Z,100.00
2023-12-24T09:09:26.162Z,100.00
2023-12-24T09:12:28.824Z,100.00
2023-12-24T09:15:30.924Z,100.00
2023-12-24T09:18:35.066Z,100.00
2023-12-24T09:21:37.227Z,100.00
2023-12-24T09:24:40.560Z,100.00
2023-12-24T09:27:42.402Z,100.00
2023-12-24T09:30:44.682Z,100.00
2023-12-24T09:33:47.089Z,100.00
2023-12-24T09:36:49.377Z,100.00
2023-12-24T09:39:51.403Z,100.00
2023-12-24T09:42:54.812Z,100.00
2023-12-24T09:45:57.170Z,100.00
2023-12-24T09:48:59.293Z,100.00
2023-12-24T09:52:01.893Z,100.00
2023-12-24T09:55:05.124Z,100.00
2023-12-24T09:58:07.374Z,100.00
2023-12-24T10:01:09.628Z,100.00
2023-12-24T10:04:15.716Z,100.00
2023-12-24T10:07:18.892Z,100.00
2023-12-24T10:10:31.071Z,100.00
2023-12-24T10:13:33.178Z,100.00
2023-12-24T10:16:47.450Z,100.00
2023-12-24T10:19:49.704Z,100.00
2023-12-24T10:23:06.632Z,100.00
2023-12-24T10:26:13.537Z,100.00
2023-12-24T10:29:24.360Z,100.00
2023-12-24T10:32:34.438Z,99.63
2023-12-24T10:35:39.973Z,98.91
2023-12-24T10:38:43.337Z,92.42
2023-12-24T10:41:49.738Z,91.37
2023-12-24T10:44:58.514Z,91.69
2023-12-24T10:48:02.480Z,89.29
2023-12-24T10:51:05.166Z,88.69
2023-12-24T10:54:12.138Z,87.73
2023-12-24T10:57:52.012Z,88.23
2023-12-24T11:00:55.158Z,88.19
2023-12-24T11:03:58.585Z,86.78
2023-12-24T11:07:06.393Z,87.20
2023-12-24T11:10:08.558Z,86.88
2023-12-24T11:16:57.232Z,85.36
2023-12-24T11:20:24.955Z,85.07
2023-12-24T11:23:27.064Z,85.58
2023-12-24T11:26:33.655Z,86.08
2023-12-24T11:29:50.433Z,86.78
2023-12-24T11:32:53.238Z,87.84
2023-12-24T11:36:01.784Z,88.69
2023-12-24T11:39:05.052Z,88.79
2023-12-24T11:42:07.415Z,87.74
2023-12-24T11:45:20.458Z,89.18
2023-12-24T11:48:31.420Z,87.23
2023-12-24T11:51:33.935Z,88.36
2023-12-24T11:54:36.134Z,87.97
2023-12-24T11:57:38.737Z,86.18
2023-12-24T12:00:40.824Z,85.51
2023-12-24T12:03:43.231Z,86.51
2023-12-24T12:06:51.048Z,86.54
2023-12-24T12:09:53.597Z,84.72
2023-12-24T12:12:58.344Z,85.99
2023-12-24T12:16:03.240Z,83.90
2023-12-24T12:19:09.164Z,82.96
2023-12-24T12:22:15.518Z,83.16
2023-12-24T12:25:22.890Z,83.76
2023-12-24T12:28:31.996Z,82.61
2023-12-24T12:32:02.303Z,83.38
2023-12-24T12:35:11.379Z,80.83
2023-12-24T12:38:20.618Z,81.94
2023-12-24T12:41:26.910Z,80.72
2023-12-24T12:44:34.553Z,79.74
2023-12-24T12:47:44.979Z,80.55
2023-12-24T12:50:59.163Z,81.23
2023-12-24T12:54:07.927Z,80.86
2023-12-24T12:57:14.262Z,79.74
2023-12-24T13:00:32.610Z,80.77
2023-12-24T13:04:04.678Z,81.77
2023-12-24T13:07:10.077Z,82.94
2023-12-24T13:10:34.298Z,85.38
2023-12-24T13:13:39.493Z,87.05
2023-12-24T13:16:43.286Z,88.45
2023-12-24T13:19:46.665Z,89.46
2023-12-24T13:22:49.579Z,89.45
2023-12-24T13:25:52.743Z,90.14
2023-12-24T13:28:58.887Z,91.68
2023-12-24T13:32:01.134Z,92.22
2023-12-24T13:35:03.500Z,93.42
2023-12-24T13:38:09.560Z,92.41
2023-12-24T13:41:12.866Z,92.32
2023-12-24T13:44:16.010Z,90.93
2023-12-24T13:47:18.308Z,90.45
2023-12-24T13:50:21.731Z,90.59
2023-12-24T13:53:31.352Z,90.95
2023-12-24T13:56:35.110Z,90.83
2023-12-24T13:59:37.253Z,91.26
2023-12-24T14:02:39.608Z,90.90
2023-12-24T14:05:41.983Z,90.14
2023-12-24T14:08:45.440Z,91.07
2023-12-24T14:11:48.102Z,92.54
2023-12-24T14:14:51.932Z,90.75
2023-12-24T14:17:54.384Z,91.00
2023-12-24T14:20:56.526Z,91.19
2023-12-24T14:24:01.008Z,90.63
2023-12-24T14:27:04.553Z,90.83
2023-12-24T14:30:08.993Z,90.54
2023-12-24T14:33:12.896Z,91.07
2023-12-24T14:36:16.031Z,91.95
2023-12-24T14:39:18.410Z,92.75
2023-12-24T14:42:24.175Z,90.91
2023-12-24T14:45:26.414Z,92.24
2023-12-24T14:48:30.275Z,90.93
2023-12-24T14:51:33.149Z,91.67
2023-12-24T14:54:36.252Z,92.56
2023-12-24T14:57:39.744Z,93.48
2023-12-24T15:00:42.775Z,93.30
2023-12-24T15:03:45.171Z,92.13
2023-12-24T15:06:49.857Z,93.44
2023-12-24T15:09:52.547Z,92.66
2023-12-24T15:12:55.007Z,93.67
2023-12-24T15:15:58.188Z,93.75
2023-12-24T15:19:00.614Z,92.73
2023-12-24T15:22:04.552Z,92.68
2023-12-24T15:25:06.672Z,92.76
2023-12-24T15:28:08.893Z,93.42
2023-12-24T15:31:14.526Z,93.78
2023-12-24T15:34:17.132Z,93.84
2023-12-24T15:37:22.238Z,94.41
2023-12-24T15:40:24.730Z,93.73
2023-12-24T15:43:27.404Z,93.76
2023-12-24T15:46:29.726Z,94.05
2023-12-24T15:49:32.019Z,93.48
2023-12-24T15:52:37.159Z,93.81
2023-12-24T15:55:39.456Z,93.17
2023-12-24T15:58:41.854Z,93.07
2023-12-24T16:01:45.274Z,93.48
2023-12-24T16:04:48.444Z,93.90
2023-12-24T16:07:51.184Z,94.96
2023-12-24T16:10:53.495Z,93.85
2023-12-24T16:13:55.651Z,94.02
2023-12-24T16:16:59.237Z,94.53
2023-12-24T16:20:01.421Z,94.40
2023-12-24T16:23:10.404Z,93.63
2023-12-24T16:26:18.860Z,94.09
2023-12-24T16:29:25.366Z,94.94
2023-12-24T16:32:31.614Z,93.58
2023-12-24T16:35:38.518Z,94.57
2023-12-24T16:38:42.070Z,96.25
2023-12-24T16:41:46.687Z,96.40
2023-12-24T16:44:57.829Z,96.40
2023-12-24T16:48:00.332Z,95.88
2023-12-24T16:51:02.770Z,96.49
2023-12-24T16:54:05.316Z,96.71
2023-12-24T16:57:07.698Z,96.07
2023-12-24T17:00:10.467Z,96.77
2023-12-24T17:03:13.133Z,96.90
2023-12-24T17:06:15.767Z,97.84
2023-12-24T17:09:21.432Z,98.03
2023-12-24T17:12:23.783Z,98.50
2023-12-24T17:15:30.112Z,97.87
2023-12-24T17:18:36.360Z,97.97
2023-12-24T17:21:39.213Z,97.92
2023-12-24T17:24:43.414Z,98.68
2023-12-24T17:27:49.663Z,99.34
2023-12-24T17:30:52.111Z,98.87
2023-12-24T17:33:56.747Z,99.05
2023-12-24T17:37:01.874Z,99.13
2023-12-24T17:40:05.132Z,99.69
2023-12-24T17:43:07.377Z,99.63
2023-12-24T17:46:09.446Z,99.51
2023-12-24T17:49:12.720Z,99.13
2023-12-24T17:52:16.705Z,99.75
2023-12-24T17:55:18.867Z,99.18
2023-12-24T17:58:29.843Z,99.79
2023-12-24T18:01:32.592Z,97.39
2023-12-24T18:04:35.781Z,97.34
2023-12-24T18:07:38.973Z,95.97
2023-12-24T18:10:41.816Z,96.00
2023-12-24T18:13:44.080Z,94.82
2023-12-24T18:16:46.436Z,94.78
2023-12-24T18:19:48.613Z,93.30
2023-12-24T18:22:51.142Z,92.96
2023-12-24T18:25:56.071Z,92.66
2023-12-24T18:29:00.894Z,93.31
2023-12-24T18:32:04.805Z,93.99
2023-12-24T18:35:07.216Z,93.71
2023-12-24T18:38:09.357Z,93.82
2023-12-24T18:41:19.606Z,94.71
2023-12-24T18:44:22.406Z,95.66
2023-12-24T18:47:24.606Z,91.96
2023-12-24T18:50:26.757Z,91.60
2023-12-24T18:53:34.733Z,91.81
2023-12-24T18:56:39.035Z,89.96
2023-12-24T18:59:41.263Z,90.10
2023-12-24T19:02:43.583Z,89.88
2023-12-24T19:05:46.028Z,88.84
2023-12-24T19:08:48.238Z,90.42
2023-12-24T19:11:50.388Z,90.11
2023-12-24T19:14:52.662Z,91.16
2023-12-24T19:17:54.899Z,91.63
2023-12-24T19:20:57.111Z,91.90
2023-12-24T19:23:59.091Z,92.95
2023-12-24T19:27:02.251Z,91.53
2023-12-24T19:30:05.254Z,92.65
2023-12-24T19:33:08.853Z,93.93
2023-12-24T19:36:11.105Z,93.80
2023-12-24T19:39:22.885Z,94.72
2023-12-24T19:42:32.702Z,95.13
2023-12-24T19:45:35.238Z,95.91
2023-12-24T19:48:37.600Z,96.46
2023-12-24T19:51:40.916Z,96.74
2023-12-24T19:54:44.065Z,97.30
2023-12-24T19:57:46.734Z,97.75
2023-12-24T20:00:49.249Z,98.18
2023-12-24T20:03:51.341Z,98.88
2023-12-24T20:06:54.888Z,99.62
2023-12-24T20:09:56.994Z,100.00
2023-12-24T20:12:59.825Z,100.00
2023-12-24T20:16:02.139Z,100.00
2023-12-24T20:19:04.561Z,100.00
2023-12-24T20:22:06.914Z,100.00
2023-12-24T20:25:11.535Z,99.81
2023-12-24T20:28:13.780Z,100.00
2023-12-24T20:31:16.702Z,100.00
2023-12-24T20:34:18.697Z,100.00
2023-12-24T20:37:21.530Z,100.00
2023-12-24T20:40:23.831Z,100.00
2023-12-24T20:43:28.768Z,100.00
2023-12-24T20:46:30.894Z,100.00
2023-12-24T20:49:34.290Z,100.00
2023-12-24T20:52:36.558Z,100.00
2023-12-24T20:55:38.830Z,100.00
2023-12-24T20:58:41.245Z,100.00
2023-12-24T21:01:43.529Z,100.00
2023-12-24T21:04:45.656Z,100.00
2023-12-24T21:07:49.432Z,100.00
2023-12-24T21:10:51.597Z,100.00
2023-12-24T21:13:54.264Z,100.00
2023-12-24T21:16:56.153Z,100.00
2023-12-24T21:19:58.173Z,100.00
2023-12-24T21:23:01.060Z,100.00
2023-12-24T21:26:03.067Z,100.00
2023-12-24T21:29:05.562Z,100.00
2023-12-24T21:32:07.477Z,100.00
2023-12-24T21:35:09.837Z,100.00
2023-12-24T21:38:12.111Z,100.00
2023-12-24T21:41:15.821Z,100.00
2023-12-24T21:44:17.779Z,100.00
2023-12-24T21:47:20.669Z,100.00
2023-12-24T21:50:22.815Z,100.00
2023-12-24T21:53:25.369Z,100.00
2023-12-24T21:56:32.855Z,100.00
2023-12-24T21:59:35.590Z,100.00
2023-12-24T22:02:37.678Z,100.00
2023-12-24T22:05:40.891Z,100.00
2023-12-24T22:08:45.214Z,100.00
2023-12-24T22:11:47.405Z,100.00
2023-12-24T22:14:51.961Z,100.00
2023-12-24T22:17:57.202Z,100.00
2023-12-24T22:21:02.154Z,100.00
2023-12-24T22:24:04.810Z,100.00
2023-12-24T22:27:06.915Z,100.00
2023-12-24T22:30:10.930Z,100.00
2023-12-24T22:33:14.050Z,100.00
2023-12-24T22:36:16.342Z,100.00
2023-12-24T22:39:20.171Z,100.00
2023-12-24T22:42:22.116Z,100.00
2023-12-24T22:45:26.789Z,100.00
2023-12-24T22:48:28.983Z,100.00
2023-12-24T22:51:31.425Z,100.00
2023-12-24T22:54:33.509Z,100.00
2023-12-24T22:57:35.611Z,100.00
2023-12-24T23:00:37.639Z,98.82
2023-12-24T23:03:43.885Z,98.99
2023-12-24T23:06:46.106Z,98.94
2023-12-24T23:09:48.263Z,99.32
2023-12-24T23:12:50.689Z,98.73
2023-12-24T23:15:54.413Z,98.20
2023-12-24T23:18:56.855Z,98.16
2023-12-24T23:22:00.309Z,98.87
2023-12-24T23:25:04.471Z,98.98
2023-12-24T23:28:09.447Z,99.20
2023-12-24T23:31:11.572Z,100.00
2023-12-24T23:34:13.906Z,100.00
2023-12-24T23:37:16.497Z,100.00
2023-12-24T23:40:18.800Z,100.00
2023-12-24T23:43:25.451Z,100.00
2023-12-24T23:46:27.529Z,100.00
2023-12-24T23:49:32.656Z,100.00
2023-12-24T23:52:37.507Z,100.00
2023-12-24T23:55:39.704Z,100.00
2023-12-24T23:58:41.848Z,100.00
